createdAt,value
2023-05-19T00:00:24.769Z,102277.56
2023-05-19T00:02:53.469Z,102268.63
2023-05-19T00:05:23.063Z,102277.69
2023-05-19T00:07:53.510Z,102270.09
2023-05-19T00:10:22.412Z,102268.38
2023-05-19T00:12:52.465Z,102265.94
2023-05-19T00:15:24.112Z,102263.50
2023-05-19T00:17:52.391Z,102259.59
2023-05-19T00:20:20.424Z,102258.34
2023-05-19T00:22:48.457Z,102263.75
2023-05-19T00:25:16.530Z,102264.25
2023-05-19T00:27:44.537Z,102264.00
2023-05-19T00:30:13.311Z,102267.06
2023-05-19T00:32:42.672Z,102274.25
2023-05-19T00:35:11.426Z,102273.03
2023-05-19T00:37:39.415Z,102266.91
2023-05-19T00:40:09.767Z,102272.28
2023-05-19T00:42:37.917Z,102266.91
2023-05-19T00:45:07.461Z,102270.97
2023-05-19T00:47:36.165Z,102265.47
2023-05-19T00:50:06.349Z,102266.19
2023-05-19T00:52:34.395Z,102268.38
2023-05-19T00:55:02.425Z,102265.19
2023-05-19T00:57:30.550Z,102266.66
2023-05-19T00:59:58.570Z,102268.75
2023-05-19T01:02:26.736Z,102264.59
2023-05-19T01:04:55.421Z,102268.59
2023-05-19T01:07:25.370Z,102259.31
2023-05-19T01:09:53.398Z,102260.03
2023-05-19T01:12:21.376Z,102262.59
2023-05-19T01:14:50.138Z,102253.81
2023-05-19T01:17:28.344Z,102261.25
2023-05-19T01:20:06.889Z,102255.03
2023-05-19T01:23:19.692Z,102253.69
2023-05-19T01:26:28.986Z,102263.94
2023-05-19T01:29:37.993Z,102275.28
2023-05-19T01:32:10.406Z,102260.50
2023-05-19T01:34:45.063Z,102260.00
2023-05-19T01:37:17.178Z,102270.88
2023-05-19T01:39:46.402Z,102268.31
2023-05-19T01:42:16.861Z,102268.88
2023-05-19T01:44:45.650Z,102265.69
2023-05-19T01:47:16.078Z,102257.75
2023-05-19T01:49:44.008Z,102264.94
2023-05-19T01:52:12.031Z,102262.50
2023-05-19T01:54:40.000Z,102268.00
2023-05-19T01:57:24.499Z,102268.22
2023-05-19T02:00:11.675Z,102272.19
2023-05-19T02:02:57.830Z,102262.44
2023-05-19T02:05:36.595Z,102267.38
2023-05-19T02:08:17.104Z,102268.50
2023-05-19T02:10:56.148Z,102278.38
2023-05-19T02:13:30.812Z,102277.63
2023-05-19T02:16:06.205Z,102279.72
2023-05-19T02:18:36.267Z,102276.03
2023-05-19T02:21:04.404Z,102270.84
2023-05-19T02:23:32.596Z,102265.84
2023-05-19T02:26:01.022Z,102265.34
2023-05-19T02:28:28.928Z,102261.09
2023-05-19T02:30:56.979Z,102260.22
2023-05-19T02:33:27.405Z,102260.84
2023-05-19T02:35:56.775Z,102264.66
2023-05-19T02:38:24.875Z,102257.94
2023-05-19T02:40:53.477Z,102257.28
2023-05-19T02:43:21.543Z,102261.84
2023-05-19T02:45:49.628Z,102262.47
2023-05-19T02:48:17.575Z,102259.88
2023-05-19T02:50:45.623Z,102261.47
2023-05-19T02:53:15.047Z,102258.31
2023-05-19T02:55:43.754Z,102253.56
2023-05-19T02:58:11.868Z,102254.44
2023-05-19T03:00:39.800Z,102248.84
2023-05-19T03:03:10.365Z,102249.81
2023-05-19T03:05:38.495Z,102256.06
2023-05-19T03:08:06.883Z,102249.94
2023-05-19T03:10:36.258Z,102253.81
2023-05-19T03:13:04.224Z,102252.75
2023-05-19T03:15:32.412Z,102252.88
2023-05-19T03:18:00.714Z,102244.69
2023-05-19T03:20:30.530Z,102252.88
2023-05-19T03:22:59.378Z,102248.38
2023-05-19T03:25:27.327Z,102248.09
2023-05-19T03:27:56.737Z,102252.94
2023-05-19T03:30:24.778Z,102251.75
2023-05-19T03:32:53.194Z,102251.28
2023-05-19T03:35:21.574Z,102246.38
2023-05-19T03:37:49.482Z,102253.63
2023-05-19T03:40:18.798Z,102250.09
2023-05-19T03:42:46.773Z,102251.91
2023-05-19T03:45:16.300Z,102247.66
2023-05-19T03:47:44.241Z,102248.84
2023-05-19T03:50:12.700Z,102244.47
2023-05-19T03:52:46.563Z,102244.69
2023-05-19T03:55:15.086Z,102247.63
2023-05-19T03:57:44.299Z,102246.81
2023-05-19T04:00:15.688Z,102245.56
2023-05-19T04:02:43.731Z,102243.19
2023-05-19T04:05:12.068Z,102250.63
2023-05-19T04:07:40.031Z,102248.25
2023-05-19T04:10:09.472Z,102248.09
2023-05-19T04:12:37.406Z,102251.47
2023-05-19T04:15:06.838Z,102250.28
2023-05-19T04:17:36.214Z,102250.59
2023-05-19T04:20:05.738Z,102249.78
2023-05-19T04:22:33.787Z,102253.16
2023-05-19T04:25:01.805Z,102254.00
2023-05-19T04:27:31.887Z,102258.91
2023-05-19T04:29:59.875Z,102267.38
2023-05-19T04:32:29.290Z,102265.03
2023-05-19T04:34:59.314Z,102259.25
2023-05-19T04:37:27.413Z,102258.66
2023-05-19T04:39:55.420Z,102260.41
2023-05-19T04:42:26.069Z,102261.34
2023-05-19T04:44:54.022Z,102258.19
2023-05-19T04:47:22.493Z,102261.97
2023-05-19T04:49:55.333Z,102270.19
2023-05-19T04:52:24.720Z,102267.66
2023-05-19T04:54:52.869Z,102272.16
2023-05-19T04:57:21.053Z,102271.56
2023-05-19T04:59:49.381Z,102268.53
2023-05-19T05:02:17.462Z,102271.88
2023-05-19T05:04:46.556Z,102270.59
2023-05-19T05:07:14.670Z,102262.25
2023-05-19T05:09:44.365Z,102263.94
2023-05-19T05:12:14.081Z,102268.19
2023-05-19T05:14:44.701Z,102260.13
2023-05-19T05:17:13.934Z,102265.84
2023-05-19T05:19:42.591Z,102268.59
2023-05-19T05:22:11.490Z,102268.41
2023-05-19T05:24:40.283Z,102269.97
2023-05-19T05:27:10.273Z,102268.94
2023-05-19T05:29:38.485Z,102268.03
2023-05-19T05:32:07.886Z,102265.84
2023-05-19T05:34:38.065Z,102264.19
2023-05-19T05:37:06.562Z,102265.06
2023-05-19T05:39:34.527Z,102264.22
2023-05-19T05:42:02.589Z,102276.50
2023-05-19T05:44:35.665Z,102264.25
2023-05-19T05:47:04.833Z,102265.25
2023-05-19T05:49:35.694Z,102272.34
2023-05-19T05:52:06.830Z,102270.09
2023-05-19T05:54:36.006Z,102268.66
2023-05-19T05:57:07.153Z,102266.22
2023-05-19T05:59:36.435Z,102267.22
2023-05-19T06:02:05.589Z,102260.84
2023-05-19T06:04:33.647Z,102257.53
2023-05-19T06:07:01.978Z,102264.09
2023-05-19T06:09:30.650Z,102268.09
2023-05-19T06:12:00.312Z,102263.38
2023-05-19T06:14:28.518Z,102270.59
2023-05-19T06:16:57.850Z,102263.63
2023-05-19T06:19:26.277Z,102269.91
2023-05-19T06:21:54.292Z,102264.31
2023-05-19T06:24:22.256Z,102265.72
2023-05-19T06:26:50.228Z,102272.34
2023-05-19T06:29:18.243Z,102273.53
2023-05-19T06:31:46.567Z,102273.66
2023-05-19T06:34:17.649Z,102274.81
2023-05-19T06:36:45.748Z,102278.16
2023-05-19T06:39:13.918Z,102268.91
2023-05-19T06:41:41.890Z,102267.16
2023-05-19T06:44:10.082Z,102273.63
2023-05-19T06:46:38.167Z,102270.59
2023-05-19T06:49:06.271Z,102273.94
2023-05-19T06:51:35.856Z,102275.78
2023-05-19T06:54:04.097Z,102269.66
2023-05-19T06:56:32.031Z,102272.41
2023-05-19T06:59:00.040Z,102268.69
2023-05-19T07:01:28.556Z,102275.88
2023-05-19T07:03:56.902Z,102272.03
2023-05-19T07:06:25.096Z,102271.69
2023-05-19T07:08:54.414Z,102273.78
2023-05-19T07:11:22.944Z,102271.88
2023-05-19T07:13:51.013Z,102271.56
2023-05-19T07:16:19.014Z,102271.50
2023-05-19T07:18:47.073Z,102273.56
2023-05-19T07:21:15.041Z,102270.19
2023-05-19T07:23:43.087Z,102270.19
2023-05-19T07:26:12.443Z,102281.31
2023-05-19T07:28:41.740Z,102273.53
2023-05-19T07:31:10.320Z,102270.63
2023-05-19T07:33:38.457Z,102264.25
2023-05-19T07:36:06.681Z,102268.66
2023-05-19T07:38:35.776Z,102268.69
2023-05-19T07:41:04.546Z,102267.66
2023-05-19T07:43:34.155Z,102262.94
2023-05-19T07:46:02.199Z,102268.72
2023-05-19T07:48:30.436Z,102257.19
2023-05-19T07:50:58.689Z,102252.53
2023-05-19T07:53:27.974Z,102259.50
2023-05-19T07:55:58.416Z,102253.78
2023-05-19T07:58:28.045Z,102247.34
2023-05-19T08:01:00.257Z,102247.53
2023-05-19T08:03:28.690Z,102249.69
2023-05-19T08:05:56.743Z,102247.84
2023-05-19T08:08:25.138Z,102260.88
2023-05-19T08:10:53.059Z,102247.50
2023-05-19T08:13:21.014Z,102252.41
2023-05-19T08:15:49.023Z,102256.50
2023-05-19T08:18:18.330Z,102246.03
2023-05-19T08:20:46.704Z,102257.06
2023-05-19T08:23:14.707Z,102255.69
2023-05-19T08:25:42.614Z,102251.06
2023-05-19T08:28:10.771Z,102261.00
2023-05-19T08:30:38.968Z,102264.16
2023-05-19T08:33:07.367Z,102258.22
2023-05-19T08:35:36.760Z,102257.13
2023-05-19T08:38:04.758Z,102254.19
2023-05-19T08:40:36.051Z,102252.22
2023-05-19T08:43:04.258Z,102246.09
2023-05-19T08:45:34.549Z,102251.06
2023-05-19T08:48:04.136Z,102243.59
2023-05-19T08:50:40.278Z,102243.50
2023-05-19T08:53:31.856Z,102233.69
2023-05-19T08:56:10.963Z,102226.44
2023-05-19T08:58:41.293Z,102235.72
2023-05-19T09:01:09.982Z,102229.56
2023-05-19T09:03:39.281Z,102221.66
2023-05-19T09:06:09.963Z,102224.88
2023-05-19T09:08:38.096Z,102227.94
2023-05-19T09:11:06.391Z,102222.81
2023-05-19T09:13:34.801Z,102226.50
2023-05-19T09:16:04.287Z,102229.84
2023-05-19T09:18:32.683Z,102220.75
2023-05-19T09:21:03.238Z,102222.56
2023-05-19T09:23:34.491Z,102217.56
2023-05-19T09:26:07.408Z,102218.38
2023-05-19T09:28:37.946Z,102207.28
2023-05-19T09:31:07.812Z,102220.94
2023-05-19T09:33:37.837Z,102207.84
2023-05-19T09:36:08.444Z,102214.38
2023-05-19T09:38:39.400Z,102196.38
2023-05-19T09:41:09.190Z,102205.00
2023-05-19T09:43:37.459Z,102206.88
2023-05-19T09:46:07.120Z,102198.56
2023-05-19T09:48:35.556Z,102201.09
2023-05-19T09:51:05.219Z,102202.16
2023-05-19T09:53:33.809Z,102197.75
2023-05-19T09:56:04.431Z,102196.59
2023-05-19T09:58:35.304Z,102194.88
2023-05-19T10:01:06.040Z,102186.41
2023-05-19T10:03:35.498Z,102182.56
2023-05-19T10:06:07.384Z,102178.72
2023-05-19T10:08:35.925Z,102180.31
2023-05-19T10:11:06.718Z,102172.22
2023-05-19T10:13:38.494Z,102169.94
2023-05-19T10:16:10.047Z,102144.94
2023-05-19T10:18:40.058Z,102177.78
2023-05-19T10:21:09.670Z,102179.09
2023-05-19T10:23:37.778Z,102165.63
2023-05-19T10:26:09.829Z,102179.41
2023-05-19T10:28:42.016Z,102181.81
2023-05-19T10:31:19.041Z,102176.25
2023-05-19T10:34:22.178Z,102169.28
2023-05-19T10:37:00.147Z,102173.91
2023-05-19T10:39:36.552Z,102171.56
2023-05-19T10:42:17.789Z,102157.31
2023-05-19T10:45:03.185Z,102168.44
2023-05-19T10:47:32.436Z,102172.88
2023-05-19T10:50:02.529Z,102166.91
2023-05-19T10:52:32.982Z,102165.31
2023-05-19T10:55:02.537Z,102163.03
2023-05-19T10:57:33.260Z,102151.06
2023-05-19T11:00:11.246Z,102154.84
2023-05-19T11:02:42.956Z,102153.66
2023-05-19T11:05:14.639Z,102149.00
2023-05-19T11:07:44.695Z,102146.81
2023-05-19T11:10:13.912Z,102144.84
2023-05-19T11:12:46.145Z,102151.06
2023-05-19T11:15:16.551Z,102141.53
2023-05-19T11:17:49.952Z,102152.53
2023-05-19T11:20:25.695Z,102138.78
2023-05-19T11:23:08.899Z,102142.47
2023-05-19T11:25:45.791Z,102145.19
2023-05-19T11:28:19.446Z,102136.78
2023-05-19T11:30:50.540Z,102137.78
2023-05-19T11:33:20.637Z,102140.63
2023-05-19T11:35:51.094Z,102142.72
2023-05-19T11:38:20.868Z,102138.16
2023-05-19T11:40:50.002Z,102123.84
2023-05-19T11:43:19.519Z,102137.88
2023-05-19T11:45:47.850Z,102130.22
2023-05-19T11:48:17.365Z,102125.66
2023-05-19T11:50:46.824Z,102125.19
2023-05-19T11:53:16.335Z,102124.84
2023-05-19T11:55:46.432Z,102126.94
2023-05-19T11:58:14.834Z,102127.44
2023-05-19T12:00:47.673Z,102119.91
2023-05-19T12:03:17.356Z,102116.91
2023-05-19T12:05:49.788Z,102128.28
2023-05-19T12:08:19.395Z,102127.91
2023-05-19T12:10:50.488Z,102129.19
2023-05-19T12:13:18.604Z,102118.84
2023-05-19T12:15:48.043Z,102131.03
2023-05-19T12:18:16.119Z,102130.72
2023-05-19T12:20:44.796Z,102132.56
2023-05-19T12:23:14.342Z,102127.94
2023-05-19T12:25:42.605Z,102121.25
2023-05-19T12:28:11.529Z,102126.19
2023-05-19T12:30:39.567Z,102120.78
2023-05-19T12:33:09.947Z,102112.38
2023-05-19T12:35:39.116Z,102112.22
2023-05-19T12:38:08.378Z,102114.56
2023-05-19T12:40:37.553Z,102105.28
2023-05-19T12:43:07.797Z,102115.00
2023-05-19T12:45:37.045Z,102113.88
2023-05-19T12:48:06.948Z,102109.44
2023-05-19T12:50:38.906Z,102108.59
2023-05-19T12:53:09.960Z,102104.41
2023-05-19T12:55:42.660Z,102104.94
2023-05-19T12:58:11.488Z,102098.09
2023-05-19T13:00:43.532Z,102099.06
2023-05-19T13:03:18.241Z,102094.50
2023-05-19T13:05:49.498Z,102094.16
2023-05-19T13:08:20.082Z,102103.78
2023-05-19T13:10:50.086Z,102085.84
2023-05-19T13:13:18.677Z,102085.69
2023-05-19T13:15:49.583Z,102093.72
2023-05-19T13:18:18.603Z,102088.13
2023-05-19T13:20:50.057Z,102095.78
2023-05-19T13:23:18.613Z,102096.66
2023-05-19T13:25:46.929Z,102075.44
2023-05-19T13:28:15.125Z,102084.22
2023-05-19T13:30:45.475Z,102085.50
2023-05-19T13:33:13.822Z,102089.00
2023-05-19T13:35:42.171Z,102088.47
2023-05-19T13:38:11.948Z,102087.56
2023-05-19T13:40:40.540Z,102093.94
2023-05-19T13:43:09.569Z,102088.94
2023-05-19T13:45:37.720Z,102094.66
2023-05-19T13:48:07.348Z,102095.72
2023-05-19T13:50:35.612Z,102082.75
2023-05-19T13:53:03.657Z,102098.00
2023-05-19T13:55:33.367Z,102078.13
2023-05-19T13:58:01.226Z,102084.00
2023-05-19T14:00:29.480Z,102082.28
2023-05-19T14:02:57.818Z,102084.78
2023-05-19T14:05:27.512Z,102079.50
2023-05-19T14:07:55.517Z,102082.44
2023-05-19T14:10:23.818Z,102089.97
2023-05-19T14:15:26.746Z,102087.91
2023-05-19T14:17:54.966Z,102083.56
2023-05-19T14:20:23.160Z,102089.25
2023-05-19T14:22:51.051Z,102083.97
2023-05-19T14:25:19.111Z,102085.03
2023-05-19T14:27:47.034Z,102086.31
2023-05-19T14:30:16.437Z,102090.63
2023-05-19T14:32:44.419Z,102093.38
2023-05-19T14:35:12.712Z,102084.63
2023-05-19T14:37:40.686Z,102097.59
2023-05-19T14:40:10.093Z,102099.56
2023-05-19T14:42:38.065Z,102101.59
2023-05-19T14:45:07.186Z,102097.97
2023-05-19T14:47:36.599Z,102095.16
2023-05-19T14:50:04.947Z,102097.66
2023-05-19T14:52:32.863Z,102097.91
2023-05-19T14:55:00.987Z,102098.44
2023-05-19T14:57:28.939Z,102096.75
2023-05-19T14:59:56.957Z,102099.19
2023-05-19T15:02:25.606Z,102084.75
2023-05-19T15:04:56.178Z,102087.88
2023-05-19T15:07:24.621Z,102096.66
2023-05-19T15:09:52.597Z,102105.59
2023-05-19T15:12:20.731Z,102091.38
2023-05-19T15:14:48.711Z,102094.75
2023-05-19T15:17:17.012Z,102102.28
2023-05-19T15:19:45.282Z,102093.91
2023-05-19T15:22:14.758Z,102098.47
2023-05-19T15:24:42.845Z,102105.34
2023-05-19T15:27:11.294Z,102098.88
2023-05-19T15:29:39.411Z,102089.34
2023-05-19T15:32:08.999Z,102094.06
2023-05-19T15:34:37.035Z,102088.78
2023-05-19T15:37:05.370Z,102092.63
2023-05-19T15:39:34.905Z,102079.94
2023-05-19T15:42:03.015Z,102089.44
2023-05-19T15:44:31.052Z,102078.75
2023-05-19T15:46:58.999Z,102076.13
2023-05-19T15:49:26.926Z,102080.13
2023-05-19T15:51:54.865Z,102081.16
2023-05-19T15:54:22.809Z,102069.47
2023-05-19T15:56:52.103Z,102067.91
2023-05-19T15:59:20.101Z,102077.41
2023-05-19T16:01:49.054Z,102085.34
2023-05-19T16:04:17.746Z,102082.28
2023-05-19T16:06:45.882Z,102081.81
2023-05-19T16:09:13.767Z,102084.09
2023-05-19T16:11:41.723Z,102077.13
2023-05-19T16:14:11.087Z,102075.53
2023-05-19T16:16:39.073Z,102075.16
2023-05-19T16:19:07.333Z,102075.50
2023-05-19T16:21:36.079Z,102068.22
2023-05-19T16:24:04.148Z,102072.91
2023-05-19T16:26:33.102Z,102065.28
2023-05-19T16:29:01.156Z,102071.34
2023-05-19T16:31:30.896Z,102066.56
2023-05-19T16:33:58.912Z,102067.38
2023-05-19T16:36:26.919Z,102064.13
2023-05-19T16:38:54.841Z,102057.75
2023-05-19T16:41:22.766Z,102065.41
2023-05-19T16:43:50.777Z,102068.34
2023-05-19T16:46:18.952Z,102063.88
2023-05-19T16:48:50.872Z,102067.53
2023-05-19T16:51:18.788Z,102066.25
2023-05-19T16:53:46.756Z,102069.25
2023-05-19T16:56:14.627Z,102077.09
2023-05-19T16:58:43.765Z,102072.78
2023-05-19T17:01:11.966Z,102078.53
2023-05-19T17:03:40.064Z,102075.34
2023-05-19T17:06:09.522Z,102068.72
2023-05-19T17:08:37.501Z,102078.56
2023-05-19T17:11:06.454Z,102081.94
2023-05-19T17:13:36.272Z,102082.13
2023-05-19T17:16:04.284Z,102077.88
2023-05-19T17:18:32.294Z,102081.06
2023-05-19T17:21:03.479Z,102078.94
2023-05-19T17:23:33.300Z,102080.44
2023-05-19T17:26:01.729Z,102081.81
2023-05-19T17:28:32.308Z,102076.00
2023-05-19T17:31:00.415Z,102081.94
2023-05-19T17:33:28.371Z,102076.72
2023-05-19T17:35:56.633Z,102076.75
2023-05-19T17:38:24.617Z,102083.63
2023-05-19T17:40:54.021Z,102080.06
2023-05-19T17:43:24.240Z,102083.38
2023-05-19T17:45:52.357Z,102081.44
2023-05-19T17:48:21.148Z,102089.78
2023-05-19T17:50:49.339Z,102090.03
2023-05-19T17:53:17.972Z,102092.34
2023-05-19T17:55:54.376Z,102088.31
2023-05-19T17:58:23.054Z,102087.34
2023-05-19T18:00:52.083Z,102090.19
2023-05-19T18:03:21.167Z,102080.50
2023-05-19T18:05:51.028Z,102081.94
2023-05-19T18:08:19.457Z,102073.88
2023-05-19T18:10:48.607Z,102074.69
2023-05-19T18:13:18.115Z,102084.38
2023-05-19T18:15:46.173Z,102084.03
2023-05-19T18:18:14.196Z,102074.06
2023-05-19T18:20:44.730Z,102075.97
2023-05-19T18:23:13.335Z,102076.97
2023-05-19T18:25:41.300Z,102079.69
2023-05-19T18:28:09.500Z,102088.22
2023-05-19T18:30:38.936Z,102090.44
2023-05-19T18:33:07.268Z,102086.22
2023-05-19T18:35:37.006Z,102089.28
2023-05-19T18:38:05.055Z,102097.09
2023-05-19T18:40:33.301Z,102092.50
2023-05-19T18:43:01.522Z,102098.81
2023-05-19T18:45:29.523Z,102108.31
2023-05-19T18:47:59.031Z,102105.25
2023-05-19T18:50:27.088Z,102105.97
2023-05-19T18:52:55.318Z,102110.34
2023-05-19T18:55:24.359Z,102105.28
2023-05-19T18:57:53.960Z,102104.56
2023-05-19T19:00:22.006Z,102108.66
2023-05-19T19:02:50.001Z,102110.69
2023-05-19T19:05:19.510Z,102107.09
2023-05-19T19:07:47.531Z,102100.13
2023-05-19T19:10:15.652Z,102105.72
2023-05-19T19:12:43.700Z,102108.56
2023-05-19T19:15:12.734Z,102106.50
2023-05-19T19:17:41.022Z,102107.38
2023-05-19T19:20:10.633Z,102114.47
2023-05-19T19:22:39.992Z,102108.16
2023-05-19T19:25:08.914Z,102121.03
2023-05-19T19:27:36.816Z,102126.19
2023-05-19T19:30:05.578Z,102123.09
2023-05-19T19:32:33.604Z,102125.13
2023-05-19T19:35:01.775Z,102118.63
2023-05-19T19:37:29.704Z,102119.28
2023-05-19T19:39:58.975Z,102120.81
2023-05-19T19:42:27.003Z,102124.22
2023-05-19T19:44:56.587Z,102118.41
2023-05-19T19:47:24.728Z,102118.72
2023-05-19T19:49:52.781Z,102118.72
2023-05-19T19:52:20.730Z,102112.06
2023-05-19T19:54:49.063Z,102115.78
2023-05-19T19:57:18.426Z,102115.13
2023-05-19T19:59:46.389Z,102111.28
2023-05-19T20:02:15.360Z,102125.50
2023-05-19T20:04:43.427Z,102119.06
2023-05-19T20:07:11.483Z,102119.25
2023-05-19T20:09:39.469Z,102125.50
2023-05-19T20:12:08.465Z,102129.56
2023-05-19T20:14:37.948Z,102120.34
2023-05-19T20:17:06.292Z,102126.75
2023-05-19T20:19:34.296Z,102131.53
2023-05-19T20:22:02.391Z,102140.84
2023-05-19T20:24:30.327Z,102131.16
2023-05-19T20:26:58.262Z,102135.59
2023-05-19T20:29:26.504Z,102142.75
2023-05-19T20:31:57.224Z,102143.38
2023-05-19T20:34:25.673Z,102140.72
2023-05-19T20:36:53.847Z,102143.06
2023-05-19T20:39:22.187Z,102147.09
2023-05-19T20:41:50.084Z,102149.44
2023-05-19T20:44:17.989Z,102148.78
2023-05-19T20:46:46.134Z,102148.88
2023-05-19T20:49:15.449Z,102147.34
2023-05-19T20:51:43.326Z,102151.53
2023-05-19T20:54:11.290Z,102150.72
2023-05-19T20:56:39.176Z,102148.56
2023-05-19T20:59:07.141Z,102145.56
2023-05-19T21:01:35.140Z,102147.34
2023-05-19T21:04:06.761Z,102157.94
2023-05-19T21:06:36.202Z,102156.09
2023-05-19T21:09:06.563Z,102154.72
2023-05-19T21:11:35.021Z,102146.59
2023-05-19T21:14:04.668Z,102152.00
2023-05-19T21:16:33.909Z,102153.69
2023-05-19T21:19:02.332Z,102160.97
2023-05-19T21:21:31.616Z,102167.66
2023-05-19T21:24:01.137Z,102157.88
2023-05-19T21:26:29.167Z,102158.59
2023-05-19T21:28:57.103Z,102162.13
2023-05-19T21:31:25.059Z,102171.97
2023-05-19T21:33:53.184Z,102171.81
2023-05-19T21:36:21.101Z,102172.00
2023-05-19T21:38:49.014Z,102177.22
2023-05-19T21:41:18.334Z,102171.34
2023-05-19T21:43:47.196Z,102169.94
2023-05-19T21:46:15.384Z,102165.06
2023-05-19T21:48:43.394Z,102167.16
2023-05-19T21:51:11.361Z,102173.34
2023-05-19T21:53:39.326Z,102172.34
2023-05-19T21:56:07.580Z,102172.25
2023-05-19T21:58:36.952Z,102174.56
2023-05-19T22:01:05.835Z,102176.09
2023-05-19T22:03:33.901Z,102171.56
2023-05-19T22:06:01.949Z,102171.34
2023-05-19T22:08:29.904Z,102177.06
2023-05-19T22:10:57.899Z,102178.81
2023-05-19T22:13:25.903Z,102178.94
2023-05-19T22:15:55.402Z,102185.47
2023-05-19T22:18:23.399Z,102182.81
2023-05-19T22:20:51.359Z,102184.66
2023-05-19T22:23:19.296Z,102185.94
2023-05-19T22:25:47.272Z,102182.41
2023-05-19T22:28:15.181Z,102185.72
2023-05-19T22:30:44.009Z,102186.44
2023-05-19T22:33:13.540Z,102191.00
2023-05-19T22:35:41.501Z,102188.72
2023-05-19T22:38:10.705Z,102185.50
2023-05-19T22:40:39.140Z,102179.66
2023-05-19T22:43:07.034Z,102181.84
2023-05-19T22:45:35.920Z,102185.69
2023-05-19T22:48:04.374Z,102183.31
2023-05-19T22:50:33.823Z,102183.31
2023-05-19T22:53:01.846Z,102192.16
2023-05-19T22:55:29.788Z,102187.31
2023-05-19T22:57:57.743Z,102185.59
2023-05-19T23:00:25.855Z,102186.31
2023-05-19T23:02:53.884Z,102187.47
2023-05-19T23:05:21.913Z,102183.19
2023-05-19T23:07:51.231Z,102181.22
2023-05-19T23:10:19.435Z,102182.91
2023-05-19T23:12:47.392Z,102176.06
2023-05-19T23:15:15.682Z,102171.69
2023-05-19T23:17:43.605Z,102169.53
2023-05-19T23:20:14.119Z,102170.53
2023-05-19T23:22:42.080Z,102177.50
2023-05-19T23:25:11.514Z,102180.06
2023-05-19T23:27:39.546Z,102176.09
2023-05-19T23:30:09.351Z,102174.66
2023-05-19T23:32:37.094Z,102173.47
2023-05-19T23:35:17.648Z,102170.78
2023-05-19T23:37:45.686Z,102174.03
2023-05-19T23:40:15.914Z,102185.53
2023-05-19T23:42:44.590Z,102183.09
2023-05-19T23:45:12.969Z,102181.66
2023-05-19T23:47:41.094Z,102175.75
2023-05-19T23:50:10.259Z,102180.41
2023-05-19T23:52:38.240Z,102183.53
2023-05-19T23:55:07.678Z,102184.13
2023-05-19T23:57:36.964Z,102171.22
